Time;durP1;ratioP1;P1;durP2;ratioP2;P2;SDS_P1;SDS_P2;PMS_P1;PMS_P2;Temp;Humidity;BMP_temperature;BMP_pressure;BME280_temperature;BME280_humidity;BME280_pressure;Samples;Min_cycle;Max_cycle;Signal;HPM_P1;HPM_P2
2021/09/29 00:00:25;;;;;;;19.92;9.55;;;11.90;96.40;;;;;;5018291;28;20121;-57
2021/09/29 00:02:51;;;;;;;18.23;9.10;;;11.90;96.50;;;;;;5033501;28;20037;-56
2021/09/29 00:05:18;;;;;;;13.30;8.65;;;11.90;96.50;;;;;;5026835;28;20048;-57
2021/09/29 00:07:43;;;;;;;18.00;8.50;;;12.00;96.30;;;;;;5034530;28;20061;-58
2021/09/29 00:10:10;;;;;;;15.70;8.57;;;11.90;96.40;;;;;;5034811;28;20465;-57
2021/09/29 00:12:36;;;;;;;15.63;8.80;;;11.90;96.30;;;;;;5033073;28;20036;-57
2021/09/29 00:15:09;;;;;;;16.63;8.45;;;11.90;96.20;;;;;;5033786;28;20482;-56
2021/09/29 00:17:38;;;;;;;19.05;8.65;;;11.90;96.10;;;;;;5030504;28;20137;-57
2021/09/29 00:20:10;;;;;;;16.95;8.70;;;11.90;96.30;;;;;;5035191;28;20386;-54
2021/09/29 00:22:36;;;;;;;18.42;8.48;;;11.90;96.20;;;;;;5023112;28;20151;-56
2021/09/29 00:25:03;;;;;;;22.75;8.50;;;11.90;96.30;;;;;;5034452;28;20038;-56
2021/09/29 00:27:29;;;;;;;14.60;7.82;;;11.80;96.50;;;;;;5029622;28;20034;-54
2021/09/29 00:29:59;;;;;;;15.68;7.97;;;11.80;96.60;;;;;;5032720;28;20085;-56
2021/09/29 00:32:26;;;;;;;21.15;8.40;;;11.90;96.60;;;;;;5030830;28;20033;-56
2021/09/29 00:34:52;;;;;;;16.02;8.23;;;11.90;96.50;;;;;;5032644;28;20041;-57
2021/09/29 00:37:21;;;;;;;17.60;7.82;;;11.90;96.50;;;;;;5034705;28;20040;-56
2021/09/29 00:39:47;;;;;;;17.20;7.43;;;12.00;96.40;;;;;;5031941;28;20124;-54
2021/09/29 00:42:15;;;;;;;17.83;8.00;;;11.90;96.40;;;;;;5031766;28;20063;-55
2021/09/29 00:44:41;;;;;;;16.92;7.40;;;11.90;96.40;;;;;;5032565;28;20029;-56
2021/09/29 00:47:08;;;;;;;16.58;7.55;;;11.90;96.40;;;;;;5033415;28;20041;-56
2021/09/29 00:49:34;;;;;;;13.13;6.85;;;12.00;96.40;;;;;;5033342;28;20045;-56
2021/09/29 00:52:00;;;;;;;15.68;7.43;;;12.00;96.30;;;;;;5007364;28;20441;-53
2021/09/29 00:54:28;;;;;;;14.77;7.57;;;12.00;96.30;;;;;;5032434;28;20053;-56
2021/09/29 00:56:55;;;;;;;13.60;6.97;;;12.00;96.20;;;;;;5034513;28;20041;-57
2021/09/29 00:59:22;;;;;;;12.85;6.82;;;12.00;96.20;;;;;;5017809;28;20029;-56
2021/09/29 01:01:48;;;;;;;13.23;7.60;;;12.00;96.30;;;;;;5031540;28;20025;-56
2021/09/29 01:04:15;;;;;;;13.52;6.97;;;11.90;96.30;;;;;;5032589;28;20481;-56
2021/09/29 01:06:53;;;;;;;13.27;7.47;;;11.90;96.30;;;;;;5029666;28;20038;-56
2021/09/29 01:09:26;;;;;;;15.93;7.13;;;11.90;96.40;;;;;;5025503;28;20038;-56
2021/09/29 01:12:08;;;;;;;21.65;7.68;;;11.90;96.50;;;;;;5031029;28;20401;-57
2021/09/29 01:14:45;;;;;;;18.20;7.35;;;11.90;96.40;;;;;;5029422;28;20045;-57
2021/09/29 01:17:15;;;;;;;19.80;6.78;;;11.90;96.40;;;;;;5027322;28;20045;-57
2021/09/29 01:20:14;;;;;;;18.00;7.47;;;11.90;96.30;;;;;;5029896;28;20038;-57
2021/09/29 01:23:06;;;;;;;16.90;7.13;;;11.90;96.30;;;;;;5025809;28;20041;-57
2021/09/29 01:25:56;;;;;;;16.57;7.30;;;11.90;96.40;;;;;;5028685;28;20084;-57
2021/09/29 01:28:43;;;;;;;16.27;7.28;;;11.90;96.40;;;;;;5029024;28;20049;-55
2021/09/29 01:31:11;;;;;;;12.05;7.53;;;11.90;96.50;;;;;;5030429;28;20069;-56
2021/09/29 01:33:41;;;;;;;17.02;8.20;;;11.80;96.70;;;;;;5019827;28;20037;-56
2021/09/29 01:36:08;;;;;;;17.08;8.57;;;11.90;96.70;;;;;;5032959;28;20056;-56
2021/09/29 01:38:37;;;;;;;18.15;9.77;;;11.90;96.70;;;;;;5031612;28;20033;-55
2021/09/29 01:41:07;;;;;;;17.30;10.50;;;11.90;96.70;;;;;;5027147;28;20588;-55
2021/09/29 01:43:33;;;;;;;19.35;11.70;;;11.90;96.50;;;;;;5029138;28;20045;-54
2021/09/29 01:45:59;;;;;;;20.75;12.65;;;11.90;96.50;;;;;;5027193;28;20478;-52
2021/09/29 01:48:25;;;;;;;23.40;12.43;;;11.90;96.50;;;;;;5029594;28;20033;-55
2021/09/29 01:50:56;;;;;;;25.00;13.30;;;12.00;96.50;;;;;;5039708;28;20128;-51
2021/09/29 01:53:24;;;;;;;25.30;14.07;;;12.00;96.40;;;;;;5028611;28;20037;-54
2021/09/29 01:55:50;;;;;;;27.70;14.10;;;11.90;96.50;;;;;;5032628;28;20518;-53
2021/09/29 01:58:16;;;;;;;24.85;15.05;;;12.00;96.50;;;;;;5031144;28;20494;-54
2021/09/29 02:00:43;;;;;;;24.88;14.65;;;12.00;96.50;;;;;;5029908;28;20116;-52
2021/09/29 02:03:09;;;;;;;25.00;14.25;;;12.00;96.30;;;;;;5032844;28;20378;-56
2021/09/29 02:05:39;;;;;;;25.10;13.70;;;12.00;96.30;;;;;;5029784;28;20040;-54
2021/09/29 02:08:07;;;;;;;26.15;12.60;;;12.00;96.20;;;;;;5031331;28;20560;-56
2021/09/29 02:10:34;;;;;;;25.33;12.82;;;12.00;96.20;;;;;;5044474;28;20489;-57
2021/09/29 02:13:00;;;;;;;21.20;11.35;;;12.00;96.30;;;;;;5031451;28;20033;-57
2021/09/29 02:15:26;;;;;;;19.23;9.88;;;12.00;96.40;;;;;;5030862;28;20440;-57
2021/09/29 02:17:52;;;;;;;17.65;9.48;;;12.00;96.20;;;;;;5031720;28;20037;-57
2021/09/29 02:20:19;;;;;;;18.35;9.15;;;12.00;96.30;;;;;;5030928;28;20037;-57
2021/09/29 02:22:46;;;;;;;18.50;8.30;;;11.90;96.40;;;;;;5029565;28;20030;-57
2021/09/29 02:25:12;;;;;;;15.27;8.00;;;12.00;96.40;;;;;;5032201;28;20034;-57
2021/09/29 02:27:38;;;;;;;13.55;8.25;;;12.00;96.40;;;;;;5030357;28;20036;-56
2021/09/29 02:30:07;;;;;;;17.10;7.57;;;11.90;96.50;;;;;;5029840;28;20033;-57
2021/09/29 02:32:34;;;;;;;17.42;7.45;;;11.90;96.50;;;;;;5027944;28;20496;-57
2021/09/29 02:35:00;;;;;;;13.52;7.20;;;12.00;96.50;;;;;;5013729;28;20490;-57
2021/09/29 02:37:25;;;;;;;18.45;7.50;;;11.90;96.50;;;;;;5034241;28;20048;-57
2021/09/29 02:39:51;;;;;;;13.07;6.82;;;11.90;96.50;;;;;;5029286;28;20045;-55
2021/09/29 02:42:17;;;;;;;16.70;7.15;;;11.90;96.60;;;;;;5032468;28;20039;-57
2021/09/29 02:44:46;;;;;;;12.68;6.93;;;11.90;96.70;;;;;;5023817;28;20487;-57
2021/09/29 02:47:12;;;;;;;13.20;7.03;;;11.80;96.80;;;;;;5024020;28;20397;-57
2021/09/29 02:49:37;;;;;;;14.70;6.95;;;11.80;96.80;;;;;;5026782;28;20042;-56
2021/09/29 02:52:03;;;;;;;19.77;7.40;;;11.80;96.80;;;;;;5026163;28;20041;-57
2021/09/29 02:54:29;;;;;;;9.73;6.10;;;11.80;96.90;;;;;;5023921;28;20100;-57
2021/09/29 02:56:54;;;;;;;14.20;6.70;;;11.90;96.80;;;;;;5029150;28;20067;-57
2021/09/29 02:59:24;;;;;;;16.92;6.28;;;11.90;96.70;;;;;;5032365;28;20022;-53
2021/09/29 03:01:51;;;;;;;13.07;6.05;;;12.00;96.50;;;;;;5022706;28;20052;-56
2021/09/29 03:04:16;;;;;;;13.20;6.38;;;11.90;96.60;;;;;;5031607;28;20498;-54
2021/09/29 03:06:42;;;;;;;13.88;6.45;;;11.90;96.70;;;;;;5033095;28;20044;-55
2021/09/29 03:09:08;;;;;;;17.02;6.90;;;11.90;96.80;;;;;;5031224;28;20566;-54
2021/09/29 03:11:34;;;;;;;14.55;6.75;;;12.00;96.70;;;;;;5030411;28;20069;-51
2021/09/29 03:13:59;;;;;;;12.43;6.18;;;12.10;96.60;;;;;;5028822;28;20093;-54
2021/09/29 03:16:25;;;;;;;15.38;6.80;;;12.10;96.40;;;;;;5028847;28;20069;-53
2021/09/29 03:18:51;;;;;;;12.70;6.68;;;12.00;96.50;;;;;;5029348;28;20037;-54
2021/09/29 03:21:17;;;;;;;18.45;7.50;;;12.00;96.60;;;;;;5033458;28;20231;-57
2021/09/29 03:23:43;;;;;;;14.02;6.60;;;12.00;96.60;;;;;;5030628;28;20127;-56
2021/09/29 03:26:08;;;;;;;11.35;5.85;;;12.00;96.70;;;;;;5030858;28;20069;-57
2021/09/29 03:28:34;;;;;;;14.82;6.57;;;11.90;96.80;;;;;;5032434;28;20040;-57
2021/09/29 03:31:00;;;;;;;12.95;6.47;;;11.90;96.80;;;;;;5029793;28;20026;-57
2021/09/29 03:33:26;;;;;;;12.27;6.65;;;11.90;96.90;;;;;;5032875;28;20037;-57
2021/09/29 03:35:52;;;;;;;17.85;6.95;;;11.90;96.90;;;;;;5030956;28;20041;-57
2021/09/29 03:38:18;;;;;;;16.00;6.80;;;11.90;97.10;;;;;;5006999;28;20033;-57
2021/09/29 03:40:44;;;;;;;13.70;7.40;;;11.80;97.20;;;;;;5031783;28;20110;-55
2021/09/29 03:43:09;;;;;;;14.65;6.95;;;11.80;97.20;;;;;;5028264;28;20038;-54
2021/09/29 03:45:35;;;;;;;14.50;7.10;;;11.80;97.30;;;;;;5027864;28;20044;-54
2021/09/29 03:48:01;;;;;;;16.13;6.78;;;11.90;97.30;;;;;;5031977;28;20630;-53
2021/09/29 03:50:28;;;;;;;15.18;6.63;;;11.90;97.10;;;;;;5004550;28;20045;-54
2021/09/29 03:52:53;;;;;;;17.98;7.20;;;11.90;97.20;;;;;;5020879;28;20489;-55
2021/09/29 03:55:19;;;;;;;16.17;7.07;;;11.80;97.20;;;;;;5032069;28;20069;-52
2021/09/29 03:57:45;;;;;;;14.73;6.95;;;11.80;97.60;;;;;;5023306;28;20034;-54
2021/09/29 04:00:12;;;;;;;19.65;6.95;;;11.70;97.50;;;;;;5019566;28;20061;-54
2021/09/29 04:02:39;;;;;;;13.10;7.03;;;11.70;97.50;;;;;;5026916;28;20033;-54
2021/09/29 04:05:07;;;;;;;15.88;7.50;;;11.70;97.50;;;;;;5032158;28;20064;-53
2021/09/29 04:07:33;;;;;;;17.40;7.60;;;11.70;97.60;;;;;;5005739;28;20129;-56
2021/09/29 04:09:59;;;;;;;15.65;7.30;;;11.70;97.60;;;;;;5029312;28;20123;-56
2021/09/29 04:12:25;;;;;;;15.52;6.95;;;11.70;97.80;;;;;;5025721;28;20100;-54
2021/09/29 04:14:51;;;;;;;16.50;7.35;;;11.70;97.80;;;;;;5021520;28;20439;-53
2021/09/29 04:17:17;;;;;;;15.13;7.85;;;11.70;97.80;;;;;;5024124;28;20049;-54
2021/09/29 04:19:43;;;;;;;16.58;7.20;;;11.70;97.60;;;;;;5027871;28;20044;-54
2021/09/29 04:22:11;;;;;;;15.10;7.50;;;11.70;98.10;;;;;;5026953;28;20137;-54
2021/09/29 04:24:38;;;;;;;17.17;7.63;;;11.70;97.80;;;;;;5019359;28;20084;-56
2021/09/29 04:27:05;;;;;;;16.65;7.78;;;11.70;97.80;;;;;;5028940;28;20119;-54
2021/09/29 04:29:31;;;;;;;19.05;8.00;;;11.70;97.90;;;;;;5022244;28;20100;-54
2021/09/29 04:31:56;;;;;;;14.38;7.75;;;11.70;97.80;;;;;;5032505;28;20052;-55
2021/09/29 04:34:24;;;;;;;11.82;6.78;;;11.60;97.80;;;;;;5030919;28;20064;-54
2021/09/29 04:36:50;;;;;;;17.42;7.50;;;11.60;97.90;;;;;;5026894;28;20399;-56
2021/09/29 04:39:16;;;;;;;16.75;7.80;;;11.70;97.70;;;;;;5030920;28;20044;-55
2021/09/29 04:41:44;;;;;;;16.45;7.57;;;11.80;97.70;;;;;;5027987;28;20095;-56
2021/09/29 04:44:10;;;;;;;13.88;7.40;;;11.80;97.50;;;;;;5023341;28;20103;-54
2021/09/29 04:46:37;;;;;;;17.42;7.25;;;11.80;97.40;;;;;;5015576;28;20096;-55
2021/09/29 04:49:03;;;;;;;15.52;8.07;;;11.80;97.50;;;;;;5032831;28;20037;-56
2021/09/29 04:51:32;;;;;;;14.82;7.45;;;11.70;97.60;;;;;;5030879;28;20417;-57
2021/09/29 04:53:58;;;;;;;17.48;7.70;;;11.80;97.70;;;;;;5027279;28;20501;-57
2021/09/29 04:56:23;;;;;;;15.57;7.75;;;11.80;97.70;;;;;;5034578;28;20034;-54
2021/09/29 04:58:49;;;;;;;15.80;7.45;;;11.70;97.70;;;;;;5031515;28;20038;-55
2021/09/29 05:01:15;;;;;;;19.50;7.80;;;11.70;97.90;;;;;;5033248;28;20030;-54
2021/09/29 05:03:42;;;;;;;17.77;8.07;;;11.70;98.00;;;;;;5032332;28;20508;-54
2021/09/29 05:06:08;;;;;;;14.13;7.47;;;11.70;98.00;;;;;;5032768;28;20048;-54
2021/09/29 05:08:34;;;;;;;15.00;7.63;;;11.70;98.00;;;;;;5036029;28;20033;-55
2021/09/29 05:11:20;;;;;;;17.17;7.75;;;11.70;98.00;;;;;;5004273;28;20034;-56
2021/09/29 05:13:46;;;;;;;15.20;7.22;;;11.60;98.00;;;;;;5033930;28;20069;-54
2021/09/29 05:16:13;;;;;;;18.15;7.72;;;11.60;98.10;;;;;;5029349;28;20041;-53
2021/09/29 05:18:39;;;;;;;19.50;7.45;;;11.60;98.10;;;;;;5033583;28;20033;-55
2021/09/29 05:21:04;;;;;;;17.08;7.50;;;11.60;98.20;;;;;;5034271;28;20029;-54
2021/09/29 05:23:30;;;;;;;14.85;7.05;;;11.60;98.20;;;;;;5029026;28;20040;-53
2021/09/29 05:25:56;;;;;;;12.23;6.97;;;11.70;98.10;;;;;;5035144;28;20033;-57
2021/09/29 05:28:36;;;;;;;16.60;7.80;;;11.70;97.90;;;;;;5035794;28;20163;-54
2021/09/29 05:31:02;;;;;;;18.83;8.13;;;11.70;98.00;;;;;;5028643;28;20042;-54
2021/09/29 05:33:28;;;;;;;14.82;7.70;;;11.60;97.90;;;;;;5044166;28;20060;-55
2021/09/29 05:35:54;;;;;;;17.25;8.20;;;11.60;98.20;;;;;;5030976;28;20065;-57
2021/09/29 05:38:19;;;;;;;14.32;7.63;;;11.60;98.30;;;;;;5030850;28;20038;-57
2021/09/29 05:40:45;;;;;;;14.35;7.22;;;11.60;98.40;;;;;;5030710;28;20041;-57
2021/09/29 05:43:11;;;;;;;17.42;7.78;;;11.60;98.40;;;;;;5033104;28;20037;-57
2021/09/29 05:45:37;;;;;;;12.50;7.35;;;11.60;98.40;;;;;;5031471;28;20033;-57
2021/09/29 05:48:03;;;;;;;16.52;7.82;;;11.70;98.40;;;;;;5036127;28;20037;-57
2021/09/29 05:50:29;;;;;;;15.90;8.15;;;11.70;98.30;;;;;;5033390;28;20109;-57
2021/09/29 05:52:55;;;;;;;14.18;7.15;;;11.70;98.30;;;;;;5032708;28;21237;-56
2021/09/29 05:55:21;;;;;;;13.40;7.90;;;11.80;98.40;;;;;;5032794;28;20045;-57
2021/09/29 05:57:48;;;;;;;13.68;7.50;;;11.80;98.20;;;;;;5032072;28;20030;-57
2021/09/29 06:00:14;;;;;;;14.55;7.70;;;11.80;98.30;;;;;;5008941;28;20593;-57
2021/09/29 06:02:40;;;;;;;15.45;7.55;;;11.80;98.20;;;;;;5030824;28;20104;-57
2021/09/29 06:05:07;;;;;;;18.73;7.47;;;11.90;98.20;;;;;;5021085;28;20052;-55
2021/09/29 06:07:32;;;;;;;18.30;8.20;;;12.00;98.00;;;;;;5018180;28;20070;-55
2021/09/29 06:09:58;;;;;;;13.48;7.80;;;12.00;97.70;;;;;;5023054;28;20065;-56
2021/09/29 06:12:24;;;;;;;17.58;7.57;;;11.90;98.00;;;;;;5030198;28;20479;-54
2021/09/29 06:14:52;;;;;;;15.38;8.50;;;11.90;98.20;;;;;;5030199;28;20034;-53
2021/09/29 06:19:47;;;;;;;14.88;7.63;;;11.90;98.80;;;;;;5028103;28;20037;-54
2021/09/29 06:22:12;;;;;;;16.42;7.30;;;11.90;98.60;;;;;;5029562;28;20449;-53
2021/09/29 06:24:38;;;;;;;17.52;7.47;;;11.90;98.90;;;;;;5030500;28;20037;-53
2021/09/29 06:27:04;;;;;;;18.00;7.57;;;12.00;98.90;;;;;;5031265;28;20444;-56
2021/09/29 06:29:30;;;;;;;17.08;8.45;;;12.00;99.10;;;;;;5029093;28;20052;-57
2021/09/29 06:31:58;;;;;;;14.85;7.63;;;12.00;99.30;;;;;;5030336;28;20438;-54
2021/09/29 06:34:25;;;;;;;13.20;7.35;;;12.00;99.40;;;;;;5009605;28;20037;-54
2021/09/29 06:36:51;;;;;;;21.02;7.55;;;12.00;99.20;;;;;;5020811;28;20099;-54
2021/09/29 06:39:17;;;;;;;18.80;8.15;;;12.00;99.10;;;;;;5026155;28;20041;-56
2021/09/29 06:41:44;;;;;;;14.85;7.60;;;12.10;99.00;;;;;;5020331;28;20033;-55
2021/09/29 06:44:10;;;;;;;14.15;7.28;;;12.10;99.10;;;;;;5025766;28;20501;-56
2021/09/29 06:46:36;;;;;;;16.83;7.13;;;12.00;99.20;;;;;;5030301;28;20098;-54
2021/09/29 06:49:01;;;;;;;14.68;7.82;;;12.00;99.40;;;;;;5025223;28;20478;-53
2021/09/29 06:51:27;;;;;;;14.82;7.15;;;12.00;99.40;;;;;;5021305;28;20049;-56
2021/09/29 06:53:53;;;;;;;15.05;7.75;;;12.00;99.60;;;;;;5020945;28;20101;-56
2021/09/29 06:56:19;;;;;;;18.30;6.90;;;12.10;99.30;;;;;;5025403;28;20131;-55
2021/09/29 06:58:46;;;;;;;14.05;7.20;;;12.00;99.50;;;;;;5017936;28;20030;-56
2021/09/29 07:01:11;;;;;;;17.33;7.47;;;12.10;99.60;;;;;;5022332;28;20085;-55
2021/09/29 07:03:37;;;;;;;16.35;7.32;;;12.10;99.70;;;;;;5020565;28;20041;-55
2021/09/29 07:06:04;;;;;;;19.63;8.02;;;12.10;99.90;;;;;;5027653;28;20567;-57
2021/09/29 07:08:30;;;;;;;14.60;7.63;;;12.10;99.90;;;;;;5022372;28;20486;-56
2021/09/29 07:10:56;;;;;;;15.25;7.70;;;12.10;99.90;;;;;;5024028;28;20045;-56
2021/09/29 07:13:22;;;;;;;18.63;7.47;;;12.10;99.90;;;;;;5021906;28;20046;-53
2021/09/29 07:15:48;;;;;;;16.10;7.25;;;12.10;99.90;;;;;;5026980;28;20076;-53
2021/09/29 07:18:17;;;;;;;15.82;6.85;;;12.10;99.90;;;;;;5025130;28;20109;-53
2021/09/29 07:20:43;;;;;;;15.95;7.38;;;12.10;99.90;;;;;;5022970;28;20037;-53
2021/09/29 07:23:09;;;;;;;15.32;7.60;;;12.10;99.90;;;;;;5024732;28;20125;-53
2021/09/29 07:25:37;;;;;;;13.38;7.63;;;12.20;99.90;;;;;;5019560;28;20145;-53
2021/09/29 07:28:06;;;;;;;16.67;7.40;;;12.10;99.90;;;;;;5021020;28;20068;-55
2021/09/29 07:30:34;;;;;;;18.40;8.15;;;12.10;99.90;;;;;;5024166;28;20036;-55
2021/09/29 07:33:03;;;;;;;17.90;7.72;;;12.10;99.90;;;;;;5025001;28;20718;-54
2021/09/29 07:35:30;;;;;;;17.10;7.32;;;12.10;99.90;;;;;;5020075;28;20080;-53
2021/09/29 07:37:56;;;;;;;20.60;8.00;;;12.10;99.90;;;;;;5019039;28;20042;-51
2021/09/29 07:40:22;;;;;;;18.15;8.45;;;12.10;99.90;;;;;;5022571;28;20205;-54
2021/09/29 07:42:51;;;;;;;17.15;7.97;;;12.10;99.90;;;;;;5025072;28;20073;-53
2021/09/29 07:45:17;;;;;;;14.07;7.57;;;12.10;99.90;;;;;;5017013;28;20038;-53
2021/09/29 07:47:43;;;;;;;14.23;7.47;;;12.20;99.90;;;;;;5017951;28;20037;-51
2021/09/29 07:50:12;;;;;;;17.30;7.60;;;12.10;99.90;;;;;;5023317;28;20037;-53
2021/09/29 07:52:37;;;;;;;16.00;7.38;;;12.20;99.90;;;;;;5021453;28;20045;-53
2021/09/29 07:55:04;;;;;;;17.60;7.75;;;12.20;99.90;;;;;;5024361;28;20610;-54
2021/09/29 07:57:29;;;;;;;17.50;7.53;;;12.20;99.90;;;;;;5023103;28;20041;-55
2021/09/29 07:59:55;;;;;;;17.35;7.40;;;12.20;99.90;;;;;;5024243;28;20044;-54
2021/09/29 08:02:21;;;;;;;18.17;7.18;;;12.20;99.90;;;;;;5007173;28;20038;-55
2021/09/29 08:04:47;;;;;;;16.88;8.02;;;12.30;99.90;;;;;;5027488;28;20037;-53
2021/09/29 08:07:14;;;;;;;13.45;7.15;;;12.20;99.90;;;;;;5031578;28;20037;-55
2021/09/29 08:09:39;;;;;;;18.52;7.70;;;12.20;99.90;;;;;;5029716;28;20073;-56
2021/09/29 08:12:05;;;;;;;19.73;7.65;;;12.20;99.90;;;;;;5024806;28;20064;-56
2021/09/29 08:14:32;;;;;;;12.13;6.82;;;12.20;99.90;;;;;;5027062;28;20569;-56
2021/09/29 08:16:58;;;;;;;15.50;8.13;;;12.20;99.90;;;;;;5033818;28;20073;-53
2021/09/29 08:19:24;;;;;;;14.18;7.82;;;12.20;99.90;;;;;;5025100;28;20077;-56
2021/09/29 08:21:49;;;;;;;14.85;7.53;;;12.20;99.90;;;;;;5033163;28;20109;-54
2021/09/29 08:24:22;;;;;;;15.93;6.75;;;12.20;99.90;;;;;;5024567;28;20038;-55
2021/09/29 08:26:57;;;;;;;14.30;7.30;;;12.30;99.90;;;;;;5027601;28;20045;-55
2021/09/29 08:29:38;;;;;;;17.25;7.65;;;12.40;99.90;;;;;;5028061;28;20116;-55
2021/09/29 08:37:21;;;;;;;13.77;7.03;;;12.40;99.90;;;;;;5025545;28;20097;-56
2021/09/29 08:42:29;;;;;;;16.42;8.10;;;12.40;99.90;;;;;;5029874;28;20045;-56
2021/09/29 08:45:02;;;;;;;17.65;7.57;;;12.30;99.90;;;;;;5026336;28;20049;-53
2021/09/29 08:47:40;;;;;;;13.27;6.38;;;12.30;99.90;;;;;;5027596;28;20109;-54
2021/09/29 08:50:16;;;;;;;17.70;7.05;;;12.40;99.90;;;;;;5028349;28;20037;-56
2021/09/29 08:53:08;;;;;;;12.55;7.10;;;12.40;99.90;;;;;;5023440;28;20509;-56
2021/09/29 09:14:42;;;;;;;16.63;7.30;;;12.30;99.90;;;;;;5027935;28;20034;-56
2021/09/29 09:17:36;;;;;;;10.75;6.25;;;12.30;99.90;;;;;;5031339;28;20406;-54
2021/09/29 09:20:09;;;;;;;10.93;6.50;;;12.40;99.90;;;;;;5031946;28;20028;-56
2021/09/29 09:22:34;;;;;;;9.23;5.95;;;12.40;99.90;;;;;;5020631;28;20061;-54
2021/09/29 09:25:00;;;;;;;10.15;6.70;;;12.40;99.90;;;;;;5030546;28;20052;-55
2021/09/29 09:27:37;;;;;;;11.70;6.47;;;12.40;99.90;;;;;;5028226;28;20502;-55
2021/09/29 09:30:04;;;;;;;10.85;6.50;;;12.40;99.90;;;;;;5027289;28;20073;-55
2021/09/29 09:32:41;;;;;;;12.25;6.88;;;12.40;99.90;;;;;;5008769;28;20038;-56
2021/09/29 09:35:11;;;;;;;9.77;6.40;;;12.40;99.90;;;;;;5023753;28;20179;-55
2021/09/29 09:37:38;;;;;;;11.18;6.45;;;12.40;99.90;;;;;;5028956;28;20045;-55
2021/09/29 09:40:18;;;;;;;10.60;7.38;;;12.40;99.90;;;;;;5031032;28;20045;-54
2021/09/29 09:42:47;;;;;;;9.02;6.30;;;12.40;99.90;;;;;;5023219;28;20034;-54
2021/09/29 09:45:14;;;;;;;10.15;6.18;;;12.50;99.90;;;;;;5007120;28;20124;-56
2021/09/29 09:47:45;;;;;;;9.35;5.95;;;12.50;99.90;;;;;;5008186;28;20076;-55
2021/09/29 09:50:26;;;;;;;12.52;6.93;;;12.50;99.90;;;;;;5028242;28;20452;-52
2021/09/29 09:52:57;;;;;;;12.35;6.85;;;12.50;99.90;;;;;;5028092;28;20498;-54
2021/09/29 09:55:25;;;;;;;8.45;5.93;;;12.40;99.90;;;;;;5016376;28;20502;-53
2021/09/29 09:57:54;;;;;;;10.13;5.20;;;12.40;99.90;;;;;;5027499;28;20087;-51
2021/09/29 10:00:23;;;;;;;7.15;4.20;;;12.40;99.90;;;;;;5020575;28;20040;-54
2021/09/29 10:02:55;;;;;;;6.13;4.38;;;12.50;99.90;;;;;;5021124;28;20123;-52
2021/09/29 10:05:23;;;;;;;8.15;4.70;;;12.40;99.90;;;;;;5024969;28;20388;-55
2021/09/29 10:07:49;;;;;;;8.30;4.97;;;12.40;99.90;;;;;;5020653;28;20196;-54
2021/09/29 10:13:05;;;;;;;11.27;5.75;;;12.40;99.90;;;;;;5015936;28;20060;-55
2021/09/29 10:24:00;;;;;;;8.95;6.70;;;12.50;99.90;;;;;;5022500;28;20041;-56
2021/09/29 10:26:26;;;;;;;9.75;6.80;;;12.50;99.90;;;;;;5023470;28;20042;-56
2021/09/29 10:29:07;;;;;;;9.07;6.68;;;12.50;99.90;;;;;;5021631;28;20490;-55
2021/09/29 10:34:09;;;;;;;11.75;6.30;;;12.60;99.90;;;;;;5023525;28;20034;-55
2021/09/29 10:42:27;;;;;;;9.40;6.07;;;12.60;99.90;;;;;;5023706;28;20099;-56
2021/09/29 10:47:49;;;;;;;10.95;6.38;;;12.60;99.90;;;;;;5019033;28;20045;-56
2021/09/29 11:02:50;;;;;;;8.73;5.50;;;12.60;99.90;;;;;;5025959;28;20056;-53
2021/09/29 11:04:35;;;;;;;9.35;5.38;;;12.60;99.90;;;;;;5017452;28;20048;-54
2021/09/29 11:31:54;;;;;;;6.80;4.00;;;12.60;99.90;;;;;;5025197;28;20502;-56
2021/09/29 11:34:30;;;;;;;6.55;3.78;;;12.60;99.90;;;;;;5014797;28;20034;-56
2021/09/29 11:37:20;;;;;;;6.53;3.75;;;12.60;99.90;;;;;;5005602;28;20050;-56
2021/09/29 11:49:01;;;;;;;3.55;1.80;;;12.50;99.90;;;;;;5016775;28;20052;-54
2021/09/29 12:08:16;;;;;;;2.05;0.90;;;11.90;99.90;;;;;;5019862;28;20077;-56
2021/09/29 12:10:49;;;;;;;0.63;0.60;;;11.90;99.90;;;;;;5024446;28;20037;-57
2021/09/29 12:13:16;;;;;;;2.00;0.40;;;11.80;99.90;;;;;;5016192;28;20502;-56
2021/09/29 12:15:45;;;;;;;1.58;0.50;;;11.80;99.90;;;;;;5021891;28;20117;-56
2021/09/29 12:18:12;;;;;;;4.25;2.20;;;11.70;99.90;;;;;;5013306;28;20077;-56
2021/09/29 12:20:52;;;;;;;1.75;0.52;;;11.60;99.90;;;;;;5020603;28;20440;-54
2021/09/29 12:23:19;;;;;;;0.88;0.55;;;11.60;99.90;;;;;;5019183;28;20516;-56
2021/09/29 12:25:58;;;;;;;0.40;0.22;;;11.50;99.90;;;;;;5020268;28;20095;-54
2021/09/29 12:36:33;;;;;;;1.25;0.60;;;11.30;99.90;;;;;;5025644;28;20041;-55
2021/09/29 12:38:59;;;;;;;2.20;0.68;;;11.30;99.90;;;;;;5024649;28;20040;-56
2021/09/29 12:41:28;;;;;;;2.30;1.15;;;11.30;99.90;;;;;;5026143;28;20030;-54
2021/09/29 12:44:05;;;;;;;4.03;0.70;;;11.30;99.90;;;;;;5011229;28;20091;-53
2021/09/29 12:46:32;;;;;;;1.25;0.70;;;11.30;99.90;;;;;;5022817;28;20045;-54
2021/09/29 12:49:02;;;;;;;3.80;0.85;;;11.40;99.90;;;;;;5018643;28;20039;-56
2021/09/29 12:51:31;;;;;;;1.50;0.70;;;11.40;99.90;;;;;;5025566;28;20044;-54
2021/09/29 12:54:05;;;;;;;1.35;0.88;;;11.40;99.90;;;;;;5029675;28;20040;-54
2021/09/29 12:56:31;;;;;;;1.98;0.70;;;11.40;99.90;;;;;;5028504;28;20457;-54
2021/09/29 12:58:57;;;;;;;3.60;0.77;;;11.40;99.90;;;;;;5031117;28;20117;-56
2021/09/29 13:01:22;;;;;;;2.45;1.00;;;11.40;99.90;;;;;;5021097;28;20034;-53
2021/09/29 13:03:48;;;;;;;3.33;0.85;;;11.40;99.90;;;;;;5007174;28;20049;-53
2021/09/29 13:06:13;;;;;;;3.75;0.85;;;11.40;99.90;;;;;;5025982;28;20044;-52
2021/09/29 13:08:40;;;;;;;2.13;0.75;;;11.50;99.90;;;;;;5028519;28;20168;-55
2021/09/29 13:11:06;;;;;;;1.98;0.80;;;11.50;99.90;;;;;;5030038;28;20072;-54
2021/09/29 13:13:34;;;;;;;1.10;0.80;;;11.40;99.90;;;;;;5025404;28;20548;-50
2021/09/29 13:16:01;;;;;;;3.08;0.90;;;11.50;99.90;;;;;;5032224;28;20038;-55
2021/09/29 13:18:47;;;;;;;5.43;0.90;;;11.50;99.90;;;;;;5022227;28;20122;-54
2021/09/29 13:21:24;;;;;;;2.25;0.80;;;11.50;99.90;;;;;;5010765;28;20041;-56
2021/09/29 13:24:02;;;;;;;1.30;0.70;;;11.50;99.90;;;;;;5022423;28;20041;-56
2021/09/29 13:37:22;;;;;;;4.75;1.10;;;11.60;99.90;;;;;;5026688;28;20563;-54
2021/09/29 13:39:53;;;;;;;2.22;0.95;;;11.60;99.90;;;;;;5020753;28;20578;-52
2021/09/29 13:42:19;;;;;;;2.15;0.90;;;11.70;99.90;;;;;;5021909;28;20042;-54
2021/09/29 13:44:44;;;;;;;3.05;0.90;;;11.70;99.90;;;;;;5021065;28;20183;-56
2021/09/29 13:47:10;;;;;;;2.97;1.10;;;11.70;99.90;;;;;;5019736;28;20389;-57
2021/09/29 13:49:36;;;;;;;2.65;0.95;;;11.80;99.90;;;;;;4985132;28;20096;-56
2021/09/29 13:52:03;;;;;;;3.22;1.05;;;11.80;99.90;;;;;;5019501;28;20034;-57
2021/09/29 13:54:29;;;;;;;3.17;1.13;;;11.80;99.90;;;;;;5020681;28;20038;-56
2021/09/29 13:57:13;;;;;;;6.40;1.40;;;11.90;99.90;;;;;;5022048;28;20068;-56
2021/09/29 14:29:53;;;;;;;2.28;1.20;;;12.20;99.90;;;;;;5018123;28;20046;-53
2021/09/29 14:32:27;;;;;;;4.13;1.30;;;12.20;99.90;;;;;;5016327;28;20581;-50
2021/09/29 14:34:53;;;;;;;4.55;1.52;;;12.10;99.90;;;;;;5011548;28;20033;-54
2021/09/29 14:37:19;;;;;;;1.50;1.13;;;12.00;99.90;;;;;;5019560;28;20564;-55
2021/09/29 14:39:46;;;;;;;3.78;1.38;;;12.00;99.90;;;;;;5016480;28;20486;-53
2021/09/29 14:42:12;;;;;;;6.82;1.42;;;11.90;99.90;;;;;;5025723;28;20037;-54
2021/09/29 14:44:58;;;;;;;5.63;1.40;;;11.90;99.90;;;;;;5028055;28;20126;-56
2021/09/29 14:47:24;;;;;;;2.50;1.10;;;11.80;99.90;;;;;;5019358;28;20465;-56
2021/09/29 14:49:49;;;;;;;2.75;1.30;;;11.80;99.90;;;;;;5024081;28;20046;-54
2021/09/29 14:52:15;;;;;;;3.58;1.30;;;11.70;99.90;;;;;;5025726;28;20046;-54
2021/09/29 14:54:41;;;;;;;3.38;1.30;;;11.70;99.90;;;;;;5009829;28;20049;-56
2021/09/29 14:57:11;;;;;;;4.15;1.42;;;11.60;99.90;;;;;;5008935;28;20113;-54
2021/09/29 14:59:41;;;;;;;5.38;1.70;;;11.50;99.90;;;;;;5027195;28;20084;-54
2021/09/29 15:02:07;;;;;;;5.03;1.42;;;11.50;99.90;;;;;;5024970;28;20037;-56
2021/09/29 15:04:33;;;;;;;2.85;1.35;;;11.50;99.90;;;;;;5028239;28;20037;-56
2021/09/29 15:07:00;;;;;;;3.88;1.50;;;11.50;99.90;;;;;;5022869;28;20061;-57
2021/09/29 15:09:26;;;;;;;5.57;1.60;;;11.40;99.90;;;;;;5018337;28;20041;-57
2021/09/29 15:11:52;;;;;;;5.95;1.73;;;11.40;99.90;;;;;;5021244;28;20455;-55
2021/09/29 15:14:29;;;;;;;6.43;1.70;;;11.40;99.90;;;;;;5016187;28;20088;-56
2021/09/29 15:17:04;;;;;;;5.00;1.63;;;11.30;99.90;;;;;;5018394;28;20973;-56
2021/09/29 15:19:42;;;;;;;10.07;1.90;;;11.40;99.90;;;;;;5014526;28;20034;-56
2021/09/29 15:25:45;;;;;;;7.05;1.90;;;11.40;99.90;;;;;;4987478;28;20064;-55
2021/09/29 15:47:05;;;;;;;3.38;0.70;;;11.20;99.90;;;;;;5025146;28;20056;-54
2021/09/29 15:54:51;;;;;;;1.35;0.60;;;10.90;99.90;;;;;;5029540;28;20045;-54